Time;durP1;ratioP1;P1;durP2;ratioP2;P2;SDS_P1;SDS_P2;PMS_P1;PMS_P2;Temp;Humidity;BMP_temperature;BMP_pressure;BME280_temperature;BME280_humidity;BME280_pressure;Samples;Min_cycle;Max_cycle;Signal;HPM_P1;HPM_P2
2023/12/12 00:01:47;;;;;;;0.77;0.40;;;8.00;99.90;;;;;;5071266;28;20222;-57
2023/12/12 00:04:13;;;;;;;1.07;0.43;;;8.00;99.90;;;;;;5071510;28;20209;-57
2023/12/12 00:06:38;;;;;;;0.40;0.40;;;7.90;99.90;;;;;;5071541;28;20169;-57
2023/12/12 00:09:04;;;;;;;0.40;0.40;;;7.90;99.90;;;;;;5071561;28;20215;-57
2023/12/12 00:11:30;;;;;;;0.30;0.30;;;7.80;99.90;;;;;;5071240;28;20197;-57
2023/12/12 00:13:55;;;;;;;0.30;0.30;;;7.80;99.90;;;;;;5071419;28;20612;-57
2023/12/12 00:16:21;;;;;;;0.97;0.73;;;7.80;99.90;;;;;;5071502;28;20211;-57
2023/12/12 00:18:46;;;;;;;0.93;0.43;;;7.90;99.90;;;;;;5071456;28;20276;-57
2023/12/12 00:21:12;;;;;;;0.40;0.40;;;7.90;99.90;;;;;;5070886;28;20597;-57
2023/12/12 00:23:38;;;;;;;0.75;0.75;;;8.00;99.90;;;;;;5071599;28;20273;-58
2023/12/12 00:26:07;;;;;;;0.40;0.40;;;8.00;99.90;;;;;;5071317;28;20264;-58
2023/12/12 00:28:35;;;;;;;0.50;0.50;;;8.00;99.90;;;;;;5071339;28;20178;-57
2023/12/12 00:31:01;;;;;;;0.50;0.50;;;8.00;99.90;;;;;;5070842;28;20255;-57
2023/12/12 00:33:28;;;;;;;2.20;1.37;;;8.10;99.90;;;;;;5071150;28;20678;-57
2023/12/12 00:35:53;;;;;;;0.30;0.30;;;8.00;99.90;;;;;;5071469;28;20431;-58
2023/12/12 00:38:19;;;;;;;0.70;0.63;;;8.00;99.90;;;;;;5071279;28;20643;-57
2023/12/12 00:40:52;;;;;;;0.37;0.37;;;8.10;99.90;;;;;;5070844;28;20177;-58
2023/12/12 00:43:18;;;;;;;0.30;0.30;;;8.10;99.90;;;;;;5071154;28;20177;-57
2023/12/12 00:45:43;;;;;;;0.60;0.60;;;8.10;99.90;;;;;;5071188;28;20184;-58
2023/12/12 00:48:09;;;;;;;0.30;0.30;;;8.20;99.90;;;;;;5071094;28;20232;-58
2023/12/12 00:50:34;;;;;;;0.40;0.40;;;8.10;99.90;;;;;;5070802;28;20169;-57
2023/12/12 00:53:00;;;;;;;0.60;0.57;;;8.10;99.90;;;;;;5071066;28;20197;-57
2023/12/12 00:55:26;;;;;;;0.30;0.30;;;8.00;99.90;;;;;;5071241;28;20192;-58
2023/12/12 00:57:51;;;;;;;0.40;0.40;;;7.90;99.90;;;;;;5073342;28;20188;-57
2023/12/12 01:00:17;;;;;;;0.53;0.53;;;7.80;99.90;;;;;;5074680;28;20174;-58
2023/12/12 01:02:43;;;;;;;0.37;0.37;;;7.80;99.90;;;;;;5074703;28;20197;-58
2023/12/12 01:05:08;;;;;;;0.40;0.40;;;7.90;99.90;;;;;;5074884;28;20418;-57
2023/12/12 01:07:34;;;;;;;0.60;0.60;;;7.90;99.90;;;;;;5074837;28;20201;-57
2023/12/12 01:09:59;;;;;;;0.70;0.47;;;7.70;99.90;;;;;;5074553;28;20177;-57
2023/12/12 01:12:25;;;;;;;0.70;0.70;;;7.70;99.90;;;;;;5074495;28;20193;-57
2023/12/12 01:14:51;;;;;;;0.60;0.60;;;7.80;99.90;;;;;;5074717;28;20192;-57
2023/12/12 01:17:16;;;;;;;0.40;0.40;;;7.80;99.90;;;;;;5074545;28;20173;-58
2023/12/12 01:19:42;;;;;;;0.83;0.73;;;7.70;99.90;;;;;;5074846;28;20253;-58
2023/12/12 01:22:07;;;;;;;0.60;0.47;;;7.60;99.90;;;;;;5074116;28;20625;-58
2023/12/12 01:24:34;;;;;;;0.50;0.50;;;7.60;99.90;;;;;;5074791;28;20225;-58
2023/12/12 01:27:00;;;;;;;0.40;0.40;;;7.60;99.90;;;;;;5074385;28;20188;-57
2023/12/12 01:29:26;;;;;;;0.43;0.43;;;7.60;99.90;;;;;;5074423;28;20174;-57
2023/12/12 01:31:51;;;;;;;0.30;0.30;;;7.60;99.90;;;;;;5074307;28;20193;-58
2023/12/12 01:34:17;;;;;;;0.40;0.40;;;7.60;99.90;;;;;;5074374;28;20165;-57
2023/12/12 01:36:42;;;;;;;0.50;0.50;;;7.60;99.90;;;;;;5074350;28;20651;-57
2023/12/12 01:39:08;;;;;;;0.30;0.30;;;7.60;99.90;;;;;;5074537;28;20547;-58
2023/12/12 01:41:34;;;;;;;0.30;0.30;;;7.60;99.90;;;;;;5073754;28;20272;-58
2023/12/12 01:43:59;;;;;;;0.30;0.30;;;7.60;99.90;;;;;;5074154;28;20212;-58
2023/12/12 01:46:25;;;;;;;0.30;0.30;;;7.60;99.90;;;;;;5074056;28;20173;-58
2023/12/12 01:48:52;;;;;;;0.40;0.40;;;7.60;99.90;;;;;;5074094;28;20181;-58
2023/12/12 01:51:18;;;;;;;0.38;0.38;;;7.60;99.90;;;;;;5073598;28;20446;-57
2023/12/12 01:53:48;;;;;;;0.40;0.40;;;7.60;99.90;;;;;;5073878;28;20193;-57
2023/12/12 01:56:15;;;;;;;0.30;0.30;;;7.50;99.90;;;;;;5073949;28;20400;-57
2023/12/12 01:58:43;;;;;;;0.40;0.40;;;7.50;99.90;;;;;;5073895;28;20184;-57
2023/12/12 02:01:10;;;;;;;0.40;0.40;;;7.60;99.90;;;;;;5073321;28;20194;-58
2023/12/12 02:03:37;;;;;;;1.77;0.70;;;7.50;99.90;;;;;;5074042;28;20705;-58
2023/12/12 02:06:04;;;;;;;0.40;0.40;;;7.50;99.90;;;;;;5073728;28;20173;-57
2023/12/12 02:08:30;;;;;;;0.40;0.40;;;7.60;99.90;;;;;;5073012;28;20182;-58
2023/12/12 02:10:55;;;;;;;0.80;0.80;;;7.60;99.90;;;;;;5073354;28;20342;-57
2023/12/12 02:13:21;;;;;;;0.30;0.30;;;7.60;99.90;;;;;;5073477;28;20193;-58
2023/12/12 02:15:47;;;;;;;0.40;0.40;;;7.60;99.90;;;;;;5073772;28;20177;-58
2023/12/12 02:18:16;;;;;;;1.02;0.40;;;7.60;99.90;;;;;;5073541;28;20412;-58
2023/12/12 02:20:42;;;;;;;0.40;0.40;;;7.50;99.90;;;;;;5071087;28;20189;-57
2023/12/12 02:23:08;;;;;;;0.30;0.30;;;7.40;99.90;;;;;;5064530;28;20636;-57
2023/12/12 02:25:35;;;;;;;0.60;0.60;;;7.30;99.90;;;;;;5061156;28;20209;-55
2023/12/12 02:28:02;;;;;;;0.30;0.30;;;7.40;99.90;;;;;;5053259;28;20495;-57
2023/12/12 02:30:29;;;;;;;0.30;0.30;;;7.40;99.90;;;;;;5053115;28;20541;-55
2023/12/12 02:32:54;;;;;;;0.40;0.40;;;7.40;99.90;;;;;;5053238;28;20279;-58
2023/12/12 02:35:20;;;;;;;0.30;0.30;;;7.50;99.90;;;;;;5053129;28;20257;-57
2023/12/12 02:37:46;;;;;;;0.40;0.40;;;7.50;99.90;;;;;;5053080;28;20496;-57
2023/12/12 02:40:11;;;;;;;0.40;0.40;;;7.50;99.90;;;;;;5052883;28;20169;-57
2023/12/12 02:42:43;;;;;;;1.00;0.80;;;7.40;99.90;;;;;;5052796;28;20194;-57
2023/12/12 02:45:09;;;;;;;0.80;0.80;;;7.30;99.90;;;;;;5052994;28;20166;-58
2023/12/12 02:47:37;;;;;;;0.40;0.40;;;7.30;99.90;;;;;;5052978;28;20551;-57
2023/12/12 02:50:03;;;;;;;0.40;0.40;;;7.40;99.90;;;;;;5052699;28;20409;-58
2023/12/12 02:52:29;;;;;;;0.30;0.30;;;7.40;99.90;;;;;;5052527;28;20801;-57
2023/12/12 02:54:54;;;;;;;0.37;0.37;;;7.40;99.90;;;;;;5052767;28;20249;-57
2023/12/12 02:57:22;;;;;;;0.30;0.30;;;7.30;99.90;;;;;;5052655;28;20266;-57
2023/12/12 02:59:48;;;;;;;0.30;0.30;;;7.20;99.90;;;;;;5052866;28;20594;-57
2023/12/12 03:02:13;;;;;;;0.30;0.30;;;7.20;99.90;;;;;;5052279;28;20224;-57
2023/12/12 03:04:43;;;;;;;0.30;0.30;;;7.20;99.90;;;;;;5052671;28;20192;-57
2023/12/12 03:07:08;;;;;;;0.30;0.30;;;7.10;99.90;;;;;;5052444;28;20205;-57
2023/12/12 03:09:34;;;;;;;0.40;0.40;;;7.10;99.90;;;;;;5052526;28;20174;-58
2023/12/12 03:12:00;;;;;;;0.30;0.30;;;7.20;99.90;;;;;;5051982;28;20197;-57
2023/12/12 03:14:30;;;;;;;0.30;0.30;;;7.20;99.90;;;;;;5052386;28;20648;-58
2023/12/12 03:16:56;;;;;;;0.30;0.30;;;7.30;99.90;;;;;;5052532;28;20158;-57
2023/12/12 03:19:22;;;;;;;0.30;0.30;;;7.20;99.90;;;;;;5052204;28;20170;-57
2023/12/12 03:21:49;;;;;;;0.40;0.40;;;7.30;99.90;;;;;;5051675;28;20702;-57
2023/12/12 03:24:15;;;;;;;0.50;0.50;;;7.20;99.90;;;;;;5052367;28;20216;-57
2023/12/12 03:26:41;;;;;;;1.15;1.15;;;7.20;99.90;;;;;;5052391;28;20170;-58
2023/12/12 03:29:06;;;;;;;0.33;0.33;;;7.00;99.90;;;;;;5052386;28;20181;-58
2023/12/12 03:31:32;;;;;;;0.67;0.67;;;7.00;99.90;;;;;;5051771;28;20193;-57
2023/12/12 03:33:57;;;;;;;0.30;0.30;;;6.90;99.90;;;;;;5052205;28;20206;-57
2023/12/12 03:36:23;;;;;;;0.70;0.40;;;7.00;99.90;;;;;;5052189;28;20280;-57
2023/12/12 03:38:49;;;;;;;0.30;0.30;;;7.00;99.90;;;;;;5051896;28;20174;-57
2023/12/12 03:41:16;;;;;;;0.30;0.30;;;7.10;99.90;;;;;;5051659;28;20201;-58
2023/12/12 03:43:41;;;;;;;0.85;0.52;;;7.10;99.90;;;;;;5051288;28;20177;-58
2023/12/12 03:46:14;;;;;;;0.30;0.30;;;7.10;99.90;;;;;;5052013;28;20184;-58
2023/12/12 03:48:39;;;;;;;0.40;0.40;;;7.10;99.90;;;;;;5051901;28;20644;-57
2023/12/12 03:51:11;;;;;;;0.30;0.30;;;7.10;99.90;;;;;;5051513;28;20198;-57
2023/12/12 03:53:38;;;;;;;0.30;0.30;;;7.10;99.90;;;;;;5051902;28;20510;-57
2023/12/12 03:56:04;;;;;;;0.30;0.30;;;7.20;99.90;;;;;;5051866;28;20174;-58
2023/12/12 03:58:30;;;;;;;0.30;0.30;;;7.20;99.90;;;;;;5051745;28;20204;-57
2023/12/12 04:00:55;;;;;;;0.30;0.30;;;7.20;99.90;;;;;;5051326;28;20194;-57
2023/12/12 04:03:21;;;;;;;0.30;0.30;;;7.20;99.90;;;;;;5051683;28;20277;-58
2023/12/12 04:05:47;;;;;;;0.40;0.40;;;7.20;99.90;;;;;;5070858;28;20186;-57
2023/12/12 04:08:13;;;;;;;0.30;0.30;;;7.30;99.90;;;;;;5071676;28;20173;-57
2023/12/12 04:10:38;;;;;;;0.30;0.30;;;7.30;99.90;;;;;;5071342;28;20679;-57
2023/12/12 04:13:04;;;;;;;0.50;0.40;;;7.20;99.90;;;;;;5071540;28;20202;-58
2023/12/12 04:15:29;;;;;;;0.30;0.30;;;7.10;99.90;;;;;;5071644;28;20172;-57
2023/12/12 04:17:55;;;;;;;0.40;0.40;;;7.10;99.90;;;;;;5071758;28;20173;-57
2023/12/12 04:20:21;;;;;;;0.70;0.60;;;7.10;99.90;;;;;;5071233;28;20172;-57
2023/12/12 04:22:46;;;;;;;0.30;0.30;;;6.90;99.90;;;;;;5071397;28;20756;-57
2023/12/12 04:25:12;;;;;;;0.30;0.30;;;7.00;99.90;;;;;;5071624;28;20566;-57
2023/12/12 04:27:38;;;;;;;0.37;0.37;;;6.90;99.90;;;;;;5071567;28;20201;-57
2023/12/12 04:30:04;;;;;;;0.70;0.70;;;6.80;99.90;;;;;;5071436;28;20165;-57
2023/12/12 04:32:31;;;;;;;0.30;0.30;;;6.90;99.90;;;;;;5072948;28;20451;-58
2023/12/12 04:34:57;;;;;;;0.30;0.30;;;6.90;99.90;;;;;;5075652;28;20173;-57
2023/12/12 04:37:23;;;;;;;0.30;0.30;;;6.90;99.90;;;;;;5075542;28;20189;-58
2023/12/12 04:39:48;;;;;;;0.30;0.30;;;6.80;99.90;;;;;;5075529;28;20176;-57
2023/12/12 04:42:15;;;;;;;0.30;0.30;;;6.80;99.90;;;;;;5075158;28;20204;-57
2023/12/12 04:44:44;;;;;;;0.30;0.30;;;6.90;99.90;;;;;;5075257;28;20188;-57
2023/12/12 04:47:10;;;;;;;0.30;0.30;;;6.90;99.90;;;;;;5075326;28;20184;-57
2023/12/12 04:49:36;;;;;;;0.30;0.30;;;7.00;99.90;;;;;;5075327;28;20184;-57
2023/12/12 04:52:02;;;;;;;15.20;1.15;;;7.00;99.90;;;;;;5074838;28;20516;-58
2023/12/12 04:54:29;;;;;;;0.30;0.30;;;7.00;99.90;;;;;;5075411;28;20176;-57
2023/12/12 04:56:55;;;;;;;0.30;0.30;;;7.00;99.90;;;;;;5075369;28;20170;-57
2023/12/12 04:59:21;;;;;;;11.77;1.02;;;7.00;99.90;;;;;;5074970;28;20207;-58
2023/12/12 05:01:46;;;;;;;0.30;0.30;;;7.00;99.90;;;;;;5074669;28;20666;-58
2023/12/12 05:04:12;;;;;;;0.30;0.30;;;6.90;99.90;;;;;;5075073;28;20646;-57
2023/12/12 05:06:37;;;;;;;0.30;0.30;;;7.00;99.90;;;;;;5074953;28;20258;-58
2023/12/12 05:09:03;;;;;;;0.40;0.40;;;6.90;99.90;;;;;;5075130;28;20176;-57
2023/12/12 05:11:29;;;;;;;0.30;0.30;;;6.90;99.90;;;;;;5074672;28;20575;-57
2023/12/12 05:13:56;;;;;;;0.30;0.30;;;6.90;99.90;;;;;;5074640;28;20507;-57
2023/12/12 05:16:22;;;;;;;0.40;0.40;;;6.90;99.90;;;;;;5074975;28;20180;-57
2023/12/12 05:18:48;;;;;;;0.30;0.30;;;6.90;99.90;;;;;;5074715;28;20203;-57
2023/12/12 05:21:14;;;;;;;0.40;0.40;;;6.90;99.90;;;;;;5074316;28;20203;-57
2023/12/12 05:23:41;;;;;;;0.30;0.30;;;6.90;99.90;;;;;;5075066;28;20510;-57
2023/12/12 05:26:07;;;;;;;0.30;0.30;;;6.90;99.90;;;;;;5057008;28;20234;-57
2023/12/12 05:28:33;;;;;;;0.40;0.40;;;6.80;99.90;;;;;;5074463;28;20177;-57
2023/12/12 05:30:59;;;;;;;0.40;0.40;;;6.80;99.90;;;;;;5074165;28;20189;-57
2023/12/12 05:33:24;;;;;;;0.40;0.40;;;6.80;99.90;;;;;;5074410;28;20461;-57
2023/12/12 05:35:50;;;;;;;0.60;0.50;;;6.70;99.90;;;;;;5074586;28;20279;-58
2023/12/12 05:38:16;;;;;;;0.40;0.40;;;6.80;99.90;;;;;;5074467;28;20157;-57
2023/12/12 05:40:42;;;;;;;0.30;0.30;;;6.80;99.90;;;;;;5074072;28;20177;-57
2023/12/12 05:43:09;;;;;;;0.30;0.30;;;6.90;99.90;;;;;;5074125;28;20198;-57
2023/12/12 05:45:35;;;;;;;1.60;1.50;;;6.90;99.90;;;;;;5074579;28;20181;-57
2023/12/12 05:48:03;;;;;;;0.40;0.40;;;6.90;99.90;;;;;;5074145;28;20179;-58
2023/12/12 05:50:29;;;;;;;0.38;0.38;;;6.90;99.90;;;;;;5073864;28;20165;-57
2023/12/12 05:52:54;;;;;;;0.43;0.43;;;7.00;99.90;;;;;;5074151;28;20193;-57
2023/12/12 05:55:20;;;;;;;0.33;0.33;;;7.00;99.90;;;;;;5074132;28;20252;-57
2023/12/12 05:57:45;;;;;;;0.30;0.30;;;7.00;99.90;;;;;;5074009;28;20710;-57
2023/12/12 06:00:11;;;;;;;0.40;0.40;;;7.00;99.90;;;;;;5073891;28;20177;-57
2023/12/12 06:02:37;;;;;;;1.48;0.82;;;7.00;99.90;;;;;;5072787;28;20238;-57
2023/12/12 06:05:07;;;;;;;0.30;0.30;;;7.00;99.90;;;;;;5072642;28;20176;-57
2023/12/12 06:07:36;;;;;;;6.45;0.82;;;7.00;99.90;;;;;;5073778;28;20173;-58
2023/12/12 06:10:04;;;;;;;0.40;0.40;;;7.00;99.90;;;;;;5073644;28;20181;-57
2023/12/12 06:12:30;;;;;;;0.30;0.30;;;7.00;99.90;;;;;;5073279;28;20193;-58
2023/12/12 06:14:56;;;;;;;0.30;0.30;;;7.10;99.90;;;;;;5073984;28;20276;-57
2023/12/12 06:17:22;;;;;;;0.30;0.30;;;7.00;99.90;;;;;;5073718;28;20443;-57
2023/12/12 06:19:48;;;;;;;1.95;1.85;;;7.00;99.90;;;;;;5073625;28;20174;-57
2023/12/12 06:22:13;;;;;;;7.07;2.30;;;6.90;99.90;;;;;;5073472;28;20209;-58
2023/12/12 06:24:39;;;;;;;3.50;1.33;;;6.90;99.90;;;;;;5073580;28;20192;-57
2023/12/12 06:27:05;;;;;;;0.50;0.50;;;6.90;99.90;;;;;;5073526;28;20177;-57
2023/12/12 06:29:30;;;;;;;0.30;0.30;;;6.80;99.90;;;;;;5073789;28;20260;-57
2023/12/12 06:31:56;;;;;;;0.67;0.67;;;6.70;99.90;;;;;;5073278;28;20197;-57
2023/12/12 06:34:21;;;;;;;0.40;0.40;;;6.80;99.90;;;;;;5073523;28;20173;-57
2023/12/12 06:36:47;;;;;;;0.30;0.30;;;6.90;99.90;;;;;;5073394;28;20230;-58
2023/12/12 06:39:14;;;;;;;0.40;0.40;;;6.90;99.90;;;;;;5073335;28;20203;-57
2023/12/12 06:41:40;;;;;;;1.70;1.20;;;6.80;99.90;;;;;;5073091;28;20224;-57
2023/12/12 06:44:09;;;;;;;3.70;1.87;;;6.80;99.90;;;;;;5073260;28;20185;-58
2023/12/12 06:46:36;;;;;;;0.52;0.52;;;6.80;99.90;;;;;;5073392;28;20230;-57
2023/12/12 06:49:03;;;;;;;1.95;1.05;;;6.80;99.90;;;;;;5073226;28;20200;-57
2023/12/12 06:51:28;;;;;;;0.30;0.30;;;6.90;99.90;;;;;;5072587;28;20700;-57
2023/12/12 06:53:57;;;;;;;0.43;0.43;;;7.00;99.90;;;;;;5072853;28;20331;-58
2023/12/12 06:56:23;;;;;;;1.65;1.23;;;7.00;99.90;;;;;;5072330;28;20635;-57
2023/12/12 06:58:48;;;;;;;1.13;1.03;;;6.90;99.90;;;;;;5072819;28;20177;-57
2023/12/12 07:01:14;;;;;;;1.40;0.90;;;6.90;99.90;;;;;;5072271;28;20182;-57
2023/12/12 07:03:40;;;;;;;0.60;0.60;;;6.90;99.90;;;;;;5072894;28;20173;-57
2023/12/12 07:06:06;;;;;;;0.50;0.50;;;6.90;99.90;;;;;;5072954;28;20164;-57
2023/12/12 07:08:32;;;;;;;1.13;1.13;;;6.90;99.90;;;;;;5072651;28;20185;-57
2023/12/12 07:10:58;;;;;;;3.67;0.93;;;7.00;99.90;;;;;;5072428;28;20198;-57
2023/12/12 07:13:23;;;;;;;0.40;0.40;;;7.00;99.90;;;;;;5072577;28;20454;-57
2023/12/12 07:15:49;;;;;;;0.53;0.43;;;7.00;99.90;;;;;;5072576;28;20553;-57
2023/12/12 07:18:15;;;;;;;0.60;0.60;;;6.80;99.90;;;;;;5072333;28;20166;-57
2023/12/12 07:20:41;;;;;;;0.50;0.50;;;6.80;99.90;;;;;;5071893;28;20635;-59
2023/12/12 07:23:07;;;;;;;0.40;0.40;;;6.90;99.90;;;;;;5072279;28;20226;-58
2023/12/12 07:25:34;;;;;;;1.20;0.90;;;7.00;99.90;;;;;;5072276;28;20196;-56
2023/12/12 07:28:00;;;;;;;0.30;0.30;;;7.00;99.90;;;;;;5072211;28;20200;-56
2023/12/12 07:30:29;;;;;;;0.30;0.30;;;7.00;99.90;;;;;;5071870;28;20230;-57
2023/12/12 07:32:55;;;;;;;0.30;0.30;;;6.90;99.90;;;;;;5072620;28;20255;-57
2023/12/12 07:35:21;;;;;;;0.50;0.50;;;7.00;99.90;;;;;;5072046;28;20264;-57
2023/12/12 07:37:47;;;;;;;1.60;0.77;;;6.90;99.90;;;;;;5072069;28;20256;-57
2023/12/12 07:40:13;;;;;;;2.33;1.00;;;6.90;99.90;;;;;;5071841;28;20404;-58
2023/12/12 07:42:39;;;;;;;0.50;0.50;;;7.00;99.90;;;;;;5072020;28;20515;-57
2023/12/12 07:45:07;;;;;;;0.50;0.40;;;7.00;99.90;;;;;;5071818;28;20408;-57
2023/12/12 07:47:32;;;;;;;0.60;0.60;;;6.90;99.90;;;;;;5072080;28;20188;-57
2023/12/12 07:49:58;;;;;;;0.53;0.53;;;6.80;99.90;;;;;;5071858;28;20467;-58
2023/12/12 07:52:24;;;;;;;0.57;0.57;;;6.80;99.90;;;;;;5070606;28;20451;-58
2023/12/12 07:54:50;;;;;;;0.40;0.40;;;6.80;99.90;;;;;;5071576;28;20588;-58
2023/12/12 07:57:16;;;;;;;0.40;0.40;;;6.80;99.90;;;;;;5071754;28;20465;-58
2023/12/12 07:59:43;;;;;;;0.50;0.50;;;6.80;99.90;;;;;;5071138;28;20161;-58
2023/12/12 08:02:08;;;;;;;1.63;1.52;;;6.80;99.90;;;;;;5070986;28;20424;-58
2023/12/12 08:04:35;;;;;;;0.73;0.73;;;6.80;99.90;;;;;;5071523;28;20227;-58
2023/12/12 08:07:01;;;;;;;1.35;1.35;;;6.90;99.90;;;;;;5069807;28;20597;-58
2023/12/12 08:09:28;;;;;;;0.50;0.50;;;6.90;99.90;;;;;;5071690;28;20248;-57
2023/12/12 08:11:54;;;;;;;0.77;0.77;;;6.90;99.90;;;;;;5071209;28;20530;-58
2023/12/12 08:14:20;;;;;;;1.60;1.10;;;6.80;99.90;;;;;;5071468;28;20725;-57
2023/12/12 08:16:45;;;;;;;0.60;0.60;;;6.90;99.90;;;;;;5071639;28;20256;-58
2023/12/12 08:19:11;;;;;;;0.60;0.60;;;6.90;99.90;;;;;;5071576;28;20169;-58
2023/12/12 08:21:36;;;;;;;0.30;0.30;;;6.90;99.90;;;;;;5070931;28;20356;-58
2023/12/12 08:24:03;;;;;;;0.63;0.63;;;6.90;99.90;;;;;;5071669;28;20170;-58
2023/12/12 08:26:28;;;;;;;0.30;0.30;;;7.00;99.90;;;;;;5071569;28;20314;-58
2023/12/12 08:28:55;;;;;;;1.17;0.40;;;7.10;99.90;;;;;;5071441;28;20205;-58
2023/12/12 08:31:21;;;;;;;0.73;0.73;;;7.20;99.90;;;;;;5071109;28;20686;-58
2023/12/12 08:33:46;;;;;;;1.73;1.10;;;7.20;99.90;;;;;;5071714;28;20205;-58
2023/12/12 08:36:12;;;;;;;0.40;0.40;;;7.30;99.90;;;;;;5071286;28;20223;-58
2023/12/12 08:38:38;;;;;;;0.40;0.40;;;7.30;99.90;;;;;;5071348;28;20220;-58
2023/12/12 08:41:04;;;;;;;0.50;0.40;;;7.20;99.90;;;;;;5071295;28;20651;-58
2023/12/12 08:43:30;;;;;;;0.35;0.35;;;7.20;99.90;;;;;;5071207;28;20424;-58
2023/12/12 08:45:56;;;;;;;0.30;0.30;;;7.20;99.90;;;;;;5071288;28;20220;-58
2023/12/12 08:48:23;;;;;;;0.50;0.50;;;7.10;99.90;;;;;;5071287;28;20222;-58
2023/12/12 08:50:50;;;;;;;0.30;0.30;;;7.20;99.90;;;;;;5070787;28;20280;-58
2023/12/12 08:53:16;;;;;;;0.40;0.40;;;7.20;99.90;;;;;;5071096;28;20208;-57
2023/12/12 08:55:42;;;;;;;0.40;0.40;;;7.40;99.90;;;;;;5071293;28;20170;-57
2023/12/12 08:58:08;;;;;;;0.30;0.30;;;7.30;99.90;;;;;;5071134;28;20643;-57
2023/12/12 09:00:33;;;;;;;0.30;0.30;;;7.50;99.90;;;;;;5070798;28;20166;-58
2023/12/12 09:02:59;;;;;;;0.30;0.30;;;7.50;99.90;;;;;;5071087;28;20957;-58
2023/12/12 09:05:25;;;;;;;0.40;0.40;;;7.70;99.90;;;;;;5071066;28;20169;-58
2023/12/12 09:07:51;;;;;;;0.30;0.30;;;7.70;99.90;;;;;;5071227;28;20905;-57
2023/12/12 09:10:17;;;;;;;0.30;0.30;;;7.80;99.90;;;;;;5070931;28;20197;-58
2023/12/12 09:12:43;;;;;;;0.90;0.90;;;8.00;99.90;;;;;;5070830;28;20542;-58
2023/12/12 09:15:09;;;;;;;0.40;0.40;;;8.10;99.90;;;;;;5071054;28;20457;-57
2023/12/12 09:17:35;;;;;;;0.40;0.40;;;8.20;99.90;;;;;;5071186;28;20420;-58
2023/12/12 09:20:01;;;;;;;0.30;0.30;;;8.30;99.90;;;;;;5074558;28;20176;-57
2023/12/12 09:22:27;;;;;;;0.30;0.30;;;8.30;99.90;;;;;;5074578;28;20443;-57
2023/12/12 09:24:54;;;;;;;0.30;0.30;;;8.40;99.90;;;;;;5074602;28;20403;-58
2023/12/12 09:27:20;;;;;;;0.30;0.30;;;8.50;99.90;;;;;;5074640;28;20205;-58
2023/12/12 09:29:45;;;;;;;0.73;0.73;;;8.50;99.90;;;;;;5074543;28;20465;-58
2023/12/12 09:32:12;;;;;;;0.30;0.30;;;8.60;99.90;;;;;;5073990;28;20544;-58
2023/12/12 09:34:38;;;;;;;0.30;0.30;;;8.70;99.90;;;;;;5074420;28;20230;-58
2023/12/12 09:37:03;;;;;;;0.30;0.30;;;8.80;99.90;;;;;;5074508;28;20634;-58
2023/12/12 09:39:29;;;;;;;0.30;0.30;;;8.90;99.90;;;;;;5074451;28;20170;-57
2023/12/12 09:41:59;;;;;;;0.30;0.30;;;8.90;99.90;;;;;;5073832;28;20435;-58
2023/12/12 09:44:30;;;;;;;0.30;0.30;;;8.90;99.90;;;;;;5074336;28;20161;-58
2023/12/12 09:46:57;;;;;;;0.40;0.40;;;9.00;99.90;;;;;;5074281;28;20209;-58
2023/12/12 09:49:24;;;;;;;0.77;0.60;;;8.90;99.90;;;;;;5074191;28;20177;-58
2023/12/12 09:51:52;;;;;;;0.40;0.40;;;8.90;99.90;;;;;;5073871;28;20204;-58
2023/12/12 09:54:19;;;;;;;2.35;0.50;;;9.10;99.90;;;;;;5074015;28;20296;-58
2023/12/12 09:56:47;;;;;;;1.17;0.60;;;9.20;99.90;;;;;;5074096;28;20176;-58
2023/12/12 09:59:12;;;;;;;0.40;0.40;;;9.20;99.90;;;;;;5073883;28;20177;-58
2023/12/12 10:01:40;;;;;;;0.60;0.60;;;9.30;99.90;;;;;;5073673;28;20250;-58
2023/12/12 10:04:06;;;;;;;0.93;0.93;;;9.30;99.90;;;;;;5073966;28;20166;-58
2023/12/12 10:06:41;;;;;;;0.30;0.30;;;9.30;99.90;;;;;;5073922;28;20173;-58
2023/12/12 10:09:07;;;;;;;0.55;0.50;;;9.20;99.90;;;;;;5073884;28;20263;-58
2023/12/12 10:11:32;;;;;;;0.30;0.30;;;9.10;99.90;;;;;;5073500;28;20229;-58
2023/12/12 10:14:00;;;;;;;0.40;0.40;;;9.20;99.90;;;;;;5073686;28;20689;-58
2023/12/12 10:16:27;;;;;;;0.40;0.40;;;9.30;99.90;;;;;;5073717;28;20180;-58
2023/12/12 10:18:53;;;;;;;0.40;0.40;;;9.30;99.90;;;;;;5073946;28;20592;-58
2023/12/12 10:21:20;;;;;;;0.40;0.40;;;9.30;99.90;;;;;;5073070;28;20209;-58
2023/12/12 10:23:50;;;;;;;0.40;0.40;;;9.30;99.90;;;;;;5073626;28;20242;-57
2023/12/12 10:26:29;;;;;;;0.98;0.65;;;9.20;99.90;;;;;;5073551;28;20264;-58
2023/12/12 10:28:55;;;;;;;0.40;0.40;;;9.20;99.90;;;;;;5073418;28;20276;-58
2023/12/12 10:31:22;;;;;;;0.30;0.30;;;9.30;99.90;;;;;;5072492;28;20197;-58
2023/12/12 10:33:49;;;;;;;0.40;0.40;;;9.40;99.90;;;;;;5073279;28;20220;-58
2023/12/12 10:36:14;;;;;;;0.52;0.52;;;9.40;99.90;;;;;;5073490;28;20627;-58
2023/12/12 10:38:40;;;;;;;0.40;0.40;;;9.50;99.90;;;;;;5073321;28;20322;-58
2023/12/12 10:41:13;;;;;;;0.70;0.70;;;9.60;99.90;;;;;;5073348;28;20185;-58
2023/12/12 10:43:42;;;;;;;0.30;0.30;;;9.60;99.90;;;;;;5073352;28;20454;-58
2023/12/12 10:46:15;;;;;;;0.40;0.40;;;9.60;99.90;;;;;;5073599;28;20434;-58
2023/12/12 10:48:46;;;;;;;0.30;0.30;;;9.80;99.90;;;;;;5072718;28;20550;-61
2023/12/12 10:51:13;;;;;;;0.40;0.40;;;9.80;99.90;;;;;;5072328;28;20204;-60
2023/12/12 10:53:44;;;;;;;0.40;0.40;;;9.90;99.90;;;;;;5070902;28;20212;-60
2023/12/12 10:56:12;;;;;;;0.63;0.63;;;9.80;99.90;;;;;;5072789;28;20643;-59
2023/12/12 10:58:39;;;;;;;0.40;0.40;;;9.80;99.90;;;;;;5064390;28;20949;-60
2023/12/12 11:01:08;;;;;;;0.30;0.30;;;9.80;99.90;;;;;;5055227;28;20190;-58
2023/12/12 11:03:35;;;;;;;0.40;0.40;;;9.80;99.90;;;;;;5073074;28;20173;-58
2023/12/12 11:06:01;;;;;;;3.90;0.57;;;9.80;99.90;;;;;;5064395;28;20666;-58
2023/12/12 11:08:28;;;;;;;0.57;0.53;;;9.80;99.90;;;;;;5052683;28;20197;-58
2023/12/12 11:10:54;;;;;;;0.40;0.40;;;9.70;99.90;;;;;;5052351;28;20193;-56
2023/12/12 11:13:27;;;;;;;0.30;0.30;;;9.60;99.90;;;;;;5052206;28;20623;-58
2023/12/12 11:15:58;;;;;;;0.40;0.40;;;9.70;99.90;;;;;;5071690;28;20735;-58
2023/12/12 11:18:24;;;;;;;0.40;0.40;;;9.80;99.90;;;;;;5072259;28;20189;-58
2023/12/12 11:20:50;;;;;;;0.80;0.80;;;9.80;99.90;;;;;;5071946;28;20197;-58
2023/12/12 11:23:49;;;;;;;0.40;0.40;;;9.80;99.90;;;;;;5072405;28;20432;-57
2023/12/12 11:26:16;;;;;;;0.30;0.30;;;9.80;99.90;;;;;;5072326;28;20181;-58
2023/12/12 11:28:42;;;;;;;0.60;0.60;;;9.60;99.90;;;;;;5072380;28;20170;-57
2023/12/12 11:31:08;;;;;;;0.30;0.30;;;9.50;99.90;;;;;;5067261;28;20194;-58
2023/12/12 11:34:06;;;;;;;0.50;0.50;;;9.50;99.90;;;;;;5052204;28;20208;-56
2023/12/12 11:36:54;;;;;;;0.30;0.30;;;9.40;99.90;;;;;;5052341;28;20167;-57
2023/12/12 11:39:29;;;;;;;0.40;0.40;;;9.40;99.90;;;;;;5051960;28;20194;-57
2023/12/12 11:42:01;;;;;;;0.70;0.40;;;9.40;99.90;;;;;;5051625;28;20186;-58
2023/12/12 11:44:52;;;;;;;0.30;0.30;;;9.50;99.90;;;;;;5052355;28;20662;-58
2023/12/12 11:47:23;;;;;;;0.40;0.40;;;9.60;99.90;;;;;;5040395;28;20273;-58
2023/12/12 11:49:50;;;;;;;0.70;0.70;;;9.70;99.90;;;;;;5051406;28;20213;-58
2023/12/12 11:52:38;;;;;;;0.50;0.40;;;9.70;99.90;;;;;;5051526;28;20248;-58
2023/12/12 11:55:06;;;;;;;0.50;0.47;;;9.60;99.90;;;;;;5034146;28;20269;-58
2023/12/12 11:57:32;;;;;;;0.40;0.40;;;9.50;99.90;;;;;;5051809;28;20170;-58
2023/12/12 12:00:03;;;;;;;0.40;0.40;;;9.30;99.90;;;;;;5051981;28;20197;-58
2023/12/12 12:02:29;;;;;;;0.40;0.40;;;9.30;99.90;;;;;;5050205;28;20433;-58
2023/12/12 12:04:55;;;;;;;0.40;0.40;;;9.30;99.90;;;;;;5052082;28;20576;-58
2023/12/12 12:07:21;;;;;;;0.38;0.38;;;9.40;99.90;;;;;;5051766;28;20632;-58
2023/12/12 12:09:49;;;;;;;0.30;0.30;;;9.40;99.90;;;;;;5051526;28;20178;-58
2023/12/12 12:12:15;;;;;;;0.40;0.40;;;9.50;99.90;;;;;;5050348;28;20213;-58
2023/12/12 12:14:41;;;;;;;0.40;0.40;;;9.50;99.90;;;;;;5051763;28;20196;-58
2023/12/12 12:17:08;;;;;;;2.20;0.67;;;9.50;99.90;;;;;;5051676;28;20171;-58
2023/12/12 12:19:37;;;;;;;0.30;0.30;;;9.50;99.90;;;;;;5051861;28;20498;-58
2023/12/12 12:22:10;;;;;;;18.55;11.63;;;9.50;99.90;;;;;;5051323;28;20213;-58
2023/12/12 12:24:45;;;;;;;4.10;3.22;;;9.50;99.90;;;;;;5051657;28;20173;-58
2023/12/12 12:27:14;;;;;;;0.82;0.82;;;9.50;99.90;;;;;;5051600;28;20223;-60
2023/12/12 12:29:40;;;;;;;2.03;1.65;;;9.30;99.90;;;;;;5051035;28;20177;-60
2023/12/12 12:32:13;;;;;;;0.50;0.50;;;9.20;99.90;;;;;;5063507;28;20675;-60
2023/12/12 12:34:39;;;;;;;0.70;0.70;;;9.20;99.90;;;;;;5071165;28;20165;-59
2023/12/12 12:37:04;;;;;;;0.57;0.57;;;9.30;99.90;;;;;;5071381;28;20670;-59
2023/12/12 12:39:43;;;;;;;0.63;0.63;;;9.20;99.90;;;;;;5071034;28;20403;-59
2023/12/12 12:42:09;;;;;;;1.30;1.10;;;9.40;99.90;;;;;;5070722;28;20319;-60
2023/12/12 12:44:36;;;;;;;0.40;0.40;;;9.40;99.90;;;;;;5071297;28;20183;-59
2023/12/12 12:47:02;;;;;;;1.08;0.55;;;9.40;99.90;;;;;;5071192;28;20473;-59
2023/12/12 12:49:28;;;;;;;0.43;0.43;;;9.50;99.90;;;;;;5071253;28;20170;-59
2023/12/12 12:51:54;;;;;;;0.40;0.40;;;9.60;99.90;;;;;;5070870;28;20849;-59
2023/12/12 12:54:19;;;;;;;1.07;0.70;;;9.70;99.90;;;;;;5074242;28;20200;-59
2023/12/12 12:56:48;;;;;;;0.40;0.40;;;9.50;99.90;;;;;;5075103;28;20169;-59